Terminal Aerodrome Forecast
Issued by NWS Upton, NY

Home | Current Version | Previous Version | Text Only | Print | Product List | Glossary On
Versions: 1 2 3 4 5 6 7 8 9 10 11 12 13 14 15 16 17 18 19 20 21 22 23 24 25 26 27 28 29 30 31 32
000
FTUS41 KOKX 221700 CCA
TAFEWR
TAF COR
KEWR 221756Z 2218/2324 05008KT P6SM BKN009 OVC012
     FM222200 07009KT 5SM -RA BR OVC008
     FM230200 07010KT 3SM -RA BR OVC005
     FM231300 06009KT 2SM -DZ BR BKN006 OVC009
     FM232200 05006KT 2SM -DZ BR OVC006=

USA.gov is the U.S. government's official web portal to all federal, state and local government web resources and services.